Time;durP1;ratioP1;P1;durP2;ratioP2;P2;SDS_P1;SDS_P2;PMS_P1;PMS_P2;Temp;Humidity;BMP_temperature;BMP_pressure;BME280_temperature;BME280_humidity;BME280_pressure;Samples;Min_cycle;Max_cycle;Signal;HPM_P1;HPM_P2
2022/09/28 00:00:38;;;;;;;25.73;16.00;;;7.30;99.90;;;;;;5034195;28;20712;-61
2022/09/28 00:03:06;;;;;;;27.00;16.77;;;7.30;99.90;;;;;;5034266;28;20198;-61
2022/09/28 00:05:33;;;;;;;26.90;15.68;;;7.30;99.90;;;;;;5034136;28;20305;-61
2022/09/28 00:08:00;;;;;;;23.70;15.88;;;7.20;99.90;;;;;;5034214;28;20226;-61
2022/09/28 00:10:27;;;;;;;23.10;16.25;;;7.20;99.90;;;;;;5033868;28;20678;-62
2022/09/28 00:12:54;;;;;;;23.90;15.50;;;7.20;99.90;;;;;;5033862;28;20217;-61
2022/09/28 00:15:20;;;;;;;24.55;16.50;;;7.20;99.90;;;;;;5033797;28;20222;-61
2022/09/28 00:17:48;;;;;;;26.02;16.45;;;7.10;99.90;;;;;;5033744;28;20202;-62
2022/09/28 00:20:16;;;;;;;23.33;15.38;;;7.10;99.90;;;;;;5033721;28;20202;-61
2022/09/28 00:22:43;;;;;;;26.80;15.77;;;7.00;99.90;;;;;;5033149;28;20237;-61
2022/09/28 00:25:10;;;;;;;26.52;17.20;;;7.00;99.90;;;;;;5033990;28;20198;-61
2022/09/28 00:27:37;;;;;;;25.50;16.65;;;7.00;99.90;;;;;;5037091;28;20681;-61
2022/09/28 00:30:04;;;;;;;26.13;15.65;;;7.00;99.90;;;;;;5037194;28;20705;-62
2022/09/28 00:32:31;;;;;;;24.15;15.32;;;6.90;99.90;;;;;;5037420;28;20214;-62
2022/09/28 00:34:58;;;;;;;26.73;17.02;;;6.90;99.90;;;;;;5037251;28;20214;-62
2022/09/28 00:37:26;;;;;;;24.83;17.40;;;6.90;99.90;;;;;;5037546;28;20235;-62
2022/09/28 00:39:53;;;;;;;29.30;16.50;;;6.80;99.90;;;;;;5037111;28;20245;-62
2022/09/28 00:42:22;;;;;;;27.00;16.95;;;6.80;99.90;;;;;;5037062;28;20214;-61
2022/09/28 00:44:50;;;;;;;24.50;15.07;;;6.80;99.90;;;;;;5036584;28;20209;-62
2022/09/28 00:47:36;;;;;;;23.27;16.70;;;6.70;99.90;;;;;;5037039;28;20304;-62
2022/09/28 00:50:08;;;;;;;26.35;16.35;;;6.70;99.90;;;;;;5036733;28;20770;-61
2022/09/28 00:52:40;;;;;;;29.25;16.85;;;6.70;99.90;;;;;;5036695;28;20194;-61
2022/09/28 00:55:11;;;;;;;23.00;15.80;;;6.70;99.90;;;;;;5036658;28;20222;-62
2022/09/28 00:57:40;;;;;;;25.50;17.15;;;6.70;99.90;;;;;;5036251;28;20559;-60
2022/09/28 01:00:08;;;;;;;22.92;14.95;;;6.70;99.90;;;;;;5036640;28;20206;-61
2022/09/28 01:02:35;;;;;;;23.60;16.25;;;6.70;99.90;;;;;;5036660;28;20199;-61
2022/09/28 01:05:05;;;;;;;26.83;16.00;;;6.70;99.90;;;;;;5060742;22;20595;-59
2022/09/28 01:07:32;;;;;;;25.98;15.95;;;6.70;99.90;;;;;;5036442;28;20199;-59
2022/09/28 01:10:01;;;;;;;22.77;16.75;;;6.70;99.90;;;;;;5037579;28;20206;-60
2022/09/28 01:12:28;;;;;;;24.77;16.58;;;6.80;99.90;;;;;;5039819;28;20210;-60
2022/09/28 01:14:56;;;;;;;23.02;15.45;;;6.80;99.90;;;;;;5036444;28;20328;-59
2022/09/28 01:17:28;;;;;;;24.27;16.67;;;6.80;99.90;;;;;;5036066;28;20667;-58
2022/09/28 01:20:16;;;;;;;27.30;16.10;;;6.90;99.90;;;;;;5036408;28;20196;-59
2022/09/28 01:23:22;;;;;;;27.85;16.13;;;7.00;99.90;;;;;;5036759;28;20194;-59
2022/09/28 01:25:55;;;;;;;23.95;15.90;;;7.10;99.90;;;;;;5019561;28;20205;-58
2022/09/28 01:28:26;;;;;;;24.10;15.15;;;7.10;99.90;;;;;;5036389;28;20190;-58
2022/09/28 01:31:03;;;;;;;27.77;15.77;;;7.20;99.90;;;;;;5036240;28;20183;-58
2022/09/28 01:33:35;;;;;;;20.23;14.85;;;7.20;99.90;;;;;;5036199;28;20348;-59
2022/09/28 01:36:07;;;;;;;23.98;12.93;;;7.30;99.90;;;;;;5036124;28;20203;-58
2022/09/28 01:38:39;;;;;;;19.40;12.95;;;7.30;99.90;;;;;;5035957;28;20209;-57
2022/09/28 01:41:07;;;;;;;23.73;14.23;;;7.40;99.90;;;;;;5036015;28;20203;-59
2022/09/28 01:43:39;;;;;;;23.25;14.35;;;7.40;99.90;;;;;;5035561;28;20730;-58
2022/09/28 01:46:11;;;;;;;20.88;12.70;;;7.50;99.90;;;;;;5035498;28;20186;-59
2022/09/28 01:48:45;;;;;;;21.65;13.80;;;7.50;99.90;;;;;;5036036;28;20194;-58
2022/09/28 01:51:19;;;;;;;16.48;11.68;;;7.50;99.90;;;;;;5035994;28;20201;-58
2022/09/28 01:53:50;;;;;;;17.33;13.38;;;7.60;99.90;;;;;;5035768;28;20221;-58
2022/09/28 01:56:24;;;;;;;20.92;13.48;;;7.60;99.90;;;;;;5035921;28;20573;-57
2022/09/28 01:58:56;;;;;;;19.63;13.45;;;7.60;99.90;;;;;;5036373;28;20191;-57
2022/09/28 02:01:28;;;;;;;17.35;12.20;;;7.60;99.90;;;;;;5035816;28;20198;-57
2022/09/28 02:04:00;;;;;;;13.30;11.20;;;7.70;99.90;;;;;;5035414;28;20230;-59
2022/09/28 02:06:33;;;;;;;16.30;12.63;;;7.70;99.90;;;;;;5035387;28;20670;-58
2022/09/28 02:09:05;;;;;;;18.75;11.38;;;7.70;99.90;;;;;;5035796;28;20631;-58
2022/09/28 02:11:36;;;;;;;13.65;11.00;;;7.80;99.90;;;;;;5035477;28;20186;-57
2022/09/28 02:14:07;;;;;;;15.15;11.80;;;7.80;99.90;;;;;;5035089;28;20713;-56
2022/09/28 02:16:39;;;;;;;13.68;12.05;;;7.80;99.90;;;;;;5035454;28;20238;-57
2022/09/28 02:19:08;;;;;;;16.02;11.68;;;7.80;99.90;;;;;;5036285;28;20187;-59
2022/09/28 02:21:42;;;;;;;12.48;10.65;;;7.80;99.90;;;;;;5039408;28;20198;-58
2022/09/28 02:24:14;;;;;;;12.48;10.57;;;7.80;99.90;;;;;;5035259;28;20662;-58
2022/09/28 02:26:44;;;;;;;15.60;10.77;;;7.80;99.90;;;;;;5035430;28;20647;-59
2022/09/28 02:29:12;;;;;;;12.60;10.20;;;7.90;99.90;;;;;;5035691;28;20639;-59
2022/09/28 02:31:39;;;;;;;12.80;10.27;;;7.90;99.90;;;;;;5035832;28;20206;-58
2022/09/28 02:34:06;;;;;;;13.95;11.63;;;7.90;99.90;;;;;;5035051;28;20226;-58
2022/09/28 02:36:33;;;;;;;13.00;10.30;;;7.90;99.90;;;;;;5034959;28;20218;-59
2022/09/28 02:39:01;;;;;;;11.68;8.98;;;7.90;99.90;;;;;;5034786;28;20213;-59
2022/09/28 02:41:41;;;;;;;15.63;11.30;;;7.90;99.90;;;;;;5034717;28;20199;-59
2022/09/28 02:44:18;;;;;;;12.98;9.90;;;7.90;99.90;;;;;;5035045;28;20226;-57
2022/09/28 02:46:53;;;;;;;10.40;8.52;;;7.90;99.90;;;;;;5034979;28;20182;-59
2022/09/28 02:49:28;;;;;;;12.95;10.10;;;7.90;99.90;;;;;;5033868;28;20190;-59
2022/09/28 02:52:24;;;;;;;11.93;10.20;;;7.90;99.90;;;;;;5034791;28;20236;-59
2022/09/28 02:55:19;;;;;;;14.25;10.32;;;7.90;99.90;;;;;;5035200;28;20241;-58
2022/09/28 02:58:00;;;;;;;11.55;9.00;;;7.90;99.90;;;;;;5035126;28;20186;-59
2022/09/28 03:00:32;;;;;;;13.38;10.07;;;7.90;99.90;;;;;;5035134;28;20186;-58
2022/09/28 03:03:07;;;;;;;11.23;9.05;;;7.90;99.90;;;;;;5034505;28;20558;-58
2022/09/28 03:05:45;;;;;;;12.80;9.95;;;7.90;99.90;;;;;;5035017;28;20189;-57
2022/09/28 03:08:20;;;;;;;12.75;9.50;;;7.90;99.90;;;;;;5034906;28;20194;-58
2022/09/28 03:10:50;;;;;;;10.82;9.25;;;7.90;99.90;;;;;;5035230;28;20189;-59
2022/09/28 03:13:18;;;;;;;12.15;9.85;;;7.90;99.90;;;;;;5034968;28;20186;-59
2022/09/28 03:15:46;;;;;;;12.70;8.35;;;7.90;99.90;;;;;;5034388;28;20215;-58
2022/09/28 03:18:13;;;;;;;11.77;9.73;;;7.90;99.90;;;;;;5034344;28;20198;-57
2022/09/28 03:20:40;;;;;;;12.57;9.82;;;7.90;99.90;;;;;;5035437;28;20210;-59
2022/09/28 03:23:06;;;;;;;16.35;10.30;;;7.90;99.90;;;;;;5035094;28;20213;-57
2022/09/28 03:25:33;;;;;;;13.35;9.77;;;7.90;99.90;;;;;;5035076;28;20205;-59
2022/09/28 03:28:00;;;;;;;10.38;9.32;;;7.90;99.90;;;;;;5035902;28;20207;-59
2022/09/28 03:30:27;;;;;;;10.10;9.07;;;7.90;99.90;;;;;;5034006;28;20206;-58
2022/09/28 03:32:59;;;;;;;17.70;10.02;;;7.90;99.90;;;;;;5033947;28;20209;-58
2022/09/28 03:35:25;;;;;;;12.13;10.10;;;7.90;99.90;;;;;;5033415;28;20686;-58
2022/09/28 03:37:54;;;;;;;15.70;10.88;;;7.90;99.90;;;;;;5034645;28;20202;-59
2022/09/28 03:40:21;;;;;;;11.02;9.68;;;7.90;99.90;;;;;;5034194;28;20209;-58
2022/09/28 03:42:48;;;;;;;14.20;11.05;;;7.90;99.90;;;;;;5033748;28;20670;-58
2022/09/28 03:45:15;;;;;;;12.98;10.48;;;7.90;99.90;;;;;;5033695;28;20233;-59
2022/09/28 03:47:45;;;;;;;11.68;9.15;;;7.90;99.90;;;;;;5033739;28;20228;-59
2022/09/28 03:50:13;;;;;;;13.40;10.57;;;7.90;99.90;;;;;;5033509;28;20199;-58
2022/09/28 03:52:40;;;;;;;12.45;9.88;;;7.90;99.90;;;;;;5033667;28;20224;-58
2022/09/28 03:55:08;;;;;;;13.68;9.40;;;7.90;99.90;;;;;;5033541;28;20317;-57
2022/09/28 03:57:34;;;;;;;14.48;11.18;;;7.90;99.90;;;;;;5033250;28;20233;-57
2022/09/28 04:00:01;;;;;;;13.30;10.23;;;7.90;99.90;;;;;;5033172;28;20202;-58
2022/09/28 04:02:29;;;;;;;11.52;9.20;;;7.90;99.90;;;;;;5033323;28;20198;-58
2022/09/28 04:04:56;;;;;;;13.50;9.30;;;7.90;99.90;;;;;;5032778;28;20317;-59
2022/09/28 04:10:18;;;;;;;15.00;9.60;;;;;;;;;;5076920;28;20571;-59
2022/09/28 04:12:45;;;;;;;13.30;9.60;;;;;;;;;;5071665;28;20669;-60
2022/09/28 04:15:12;;;;;;;12.07;10.10;;;;;;;;;;5072338;28;20221;-59
2022/09/28 04:17:39;;;;;;;12.73;10.00;;;;;;;;;;5072063;28;20212;-59
2022/09/28 04:20:07;;;;;;;14.82;10.65;;;;;;;;;;5070778;28;20550;-58
2022/09/28 04:22:36;;;;;;;13.32;9.85;;;;;;;;;;5071058;28;20284;-60
2022/09/28 04:25:03;;;;;;;14.70;10.85;;;;;;;;;;5070521;28;20267;-60
2022/09/28 04:30:16;;;;;;;13.68;10.63;;;;;;;;;;5069806;28;20213;-58
2022/09/28 04:32:43;;;;;;;12.82;10.20;;;;;;;;;;5070337;28;20668;-58
2022/09/28 04:35:12;;;;;;;13.27;9.50;;;;;;;;;;5069620;28;20224;-60
2022/09/28 04:37:39;;;;;;;10.45;9.10;;;;;;;;;;5069972;28;20197;-60
2022/09/28 04:40:07;;;;;;;15.00;9.48;;;;;;;;;;5069820;28;20201;-60
2022/09/28 04:42:35;;;;;;;12.60;10.45;;;;;;;;;;5070463;28;20521;-60
2022/09/28 04:45:03;;;;;;;19.42;9.60;;;;;;;;;;5069876;28;20228;-60
2022/09/28 04:47:30;;;;;;;14.90;10.30;;;;;;;;;;5069592;28;20359;-60
2022/09/28 04:49:57;;;;;;;10.55;9.45;;;;;;;;;;5069433;28;20684;-61
2022/09/28 04:52:25;;;;;;;14.65;10.23;;;;;;;;;;5070067;28;20197;-60
2022/09/28 04:54:52;;;;;;;12.40;9.25;;;;;;;;;;5069843;28;20212;-61
2022/09/28 04:57:19;;;;;;;15.57;10.20;;;;;;;;;;5072378;28;20207;-61
2022/09/28 04:59:48;;;;;;;12.95;8.55;;;;;;;;;;5070626;28;20217;-60
2022/09/28 05:02:15;;;;;;;12.23;9.80;;;;;;;;;;5069020;28;20198;-58
2022/09/28 05:04:42;;;;;;;13.35;10.90;;;;;;;;;;5068876;28;20700;-59
2022/09/28 05:07:10;;;;;;;12.27;9.48;;;;;;;;;;5069970;28;20197;-60
2022/09/28 05:09:37;;;;;;;15.60;9.65;;;;;;;;;;5069068;28;20229;-59
2022/09/28 05:12:04;;;;;;;21.08;11.15;;;;;;;;;;5070360;28;20198;-60
2022/09/28 05:14:31;;;;;;;16.33;11.10;;;;;;;;;;5069656;28;20236;-60
2022/09/28 05:16:59;;;;;;;14.13;10.65;;;;;;;;;;5068702;28;20198;-60
2022/09/28 05:19:26;;;;;;;15.65;10.30;;;;;;;;;;5068905;28;20198;-62
2022/09/28 05:21:56;;;;;;;14.75;11.05;;;;;;;;;;5055196;28;20561;-61
2022/09/28 05:24:24;;;;;;;16.48;11.05;;;;;;;;;;5055932;28;20247;-60
2022/09/28 05:26:51;;;;;;;15.50;10.10;;;;;;;;;;5043841;28;20197;-60
2022/09/28 05:29:18;;;;;;;13.43;11.10;;;;;;;;;;5048400;28;20218;-60
2022/09/28 05:31:45;;;;;;;16.75;10.15;;;;;;;;;;5036233;28;20206;-60
2022/09/28 05:34:13;;;;;;;16.88;10.88;;;;;;;;;;5049890;28;20737;-59
2022/09/28 05:36:41;;;;;;;13.90;10.10;;;;;;;;;;5055822;28;20210;-62
2022/09/28 05:39:08;;;;;;;13.80;10.90;;;;;;;;;;5055983;28;20732;-61
2022/09/28 05:41:36;;;;;;;12.40;10.77;;;;;;;;;;5055707;28;20202;-60
2022/09/28 05:44:03;;;;;;;12.90;9.95;;;;;;;;;;5055589;28;20229;-59
2022/09/28 05:46:30;;;;;;;13.45;10.90;;;;;;;;;;5040212;28;20282;-60
2022/09/28 05:48:58;;;;;;;14.48;10.68;;;;;;;;;;5036157;28;20218;-60
2022/09/28 05:51:27;;;;;;;13.63;11.50;;;;;;;;;;5035446;28;20572;-60
2022/09/28 05:53:55;;;;;;;15.80;11.15;;;;;;;;;;5036073;28;20226;-59
2022/09/28 05:56:22;;;;;;;16.10;10.45;;;;;;;;;;5036752;28;20260;-59
2022/09/28 05:58:49;;;;;;;18.10;11.63;;;;;;;;;;5035979;28;20687;-59
2022/09/28 06:01:16;;;;;;;16.42;11.38;;;;;;;;;;5036073;28;20214;-60
2022/09/28 06:03:43;;;;;;;16.63;11.75;;;;;;;;;;5035456;28;20230;-59
2022/09/28 06:06:10;;;;;;;16.48;10.45;;;;;;;;;;5035369;28;20281;-60
2022/09/28 06:08:41;;;;;;;17.30;11.45;;;;;;;;;;5035219;28;20214;-59
2022/09/28 06:11:11;;;;;;;17.08;11.88;;;;;;;;;;5035066;28;20294;-60
2022/09/28 06:13:38;;;;;;;16.55;11.50;;;;;;;;;;5035367;28;20225;-60
2022/09/28 06:16:06;;;;;;;14.00;10.88;;;;;;;;;;5034825;28;20206;-60
2022/09/28 06:18:33;;;;;;;16.83;10.77;;;;;;;;;;5034977;28;20206;-59
2022/09/28 06:21:01;;;;;;;16.77;11.10;;;;;;;;;;5034956;28;20272;-60
2022/09/28 06:23:28;;;;;;;14.52;11.05;;;;;;;;;;5047168;28;20306;-63
2022/09/28 06:25:59;;;;;;;15.02;11.55;;;;;;;;;;5054915;28;20197;-61
2022/09/28 06:28:26;;;;;;;12.45;9.52;;;;;;;;;;5054478;28;20599;-62
2022/09/28 06:30:54;;;;;;;13.35;10.50;;;;;;;;;;5054619;28;20226;-61
2022/09/28 06:33:21;;;;;;;14.10;11.20;;;;;;;;;;5053844;28;20566;-60
2022/09/28 06:35:48;;;;;;;19.08;11.40;;;;;;;;;;5054592;28;20339;-61
2022/09/28 06:38:15;;;;;;;14.07;10.90;;;;;;;;;;5055143;28;20198;-61
2022/09/28 06:40:42;;;;;;;12.90;9.77;;;;;;;;;;5057993;28;20205;-64
2022/09/28 06:43:13;;;;;;;15.52;12.15;;;;;;;;;;5053166;28;20308;-62
2022/09/28 06:45:41;;;;;;;13.73;11.10;;;;;;;;;;5036677;28;20190;-63
2022/09/28 06:48:09;;;;;;;15.73;11.30;;;;;;;;;;5036164;28;20313;-62
2022/09/28 06:50:37;;;;;;;13.82;10.95;;;;;;;;;;5035933;28;20719;-63
2022/09/28 06:53:05;;;;;;;16.58;10.50;;;;;;;;;;5034853;28;20679;-63
2022/09/28 06:55:33;;;;;;;13.35;9.48;;;;;;;;;;5037251;28;20693;-65
2022/09/28 06:58:01;;;;;;;12.77;10.13;;;;;;;;;;5055223;28;20202;-64
2022/09/28 07:00:31;;;;;;;16.85;11.43;;;;;;;;;;5055169;28;20569;-64
2022/09/28 07:02:59;;;;;;;15.05;11.68;;;;;;;;;;5057259;28;20673;-64
2022/09/28 07:05:27;;;;;;;17.67;10.80;;;;;;;;;;5060893;22;20733;-61
2022/09/28 07:07:55;;;;;;;11.23;9.85;;;;;;;;;;5032315;28;20195;-61
2022/09/28 07:10:23;;;;;;;9.50;8.60;;;;;;;;;;5033437;28;20226;-61
2022/09/28 07:12:50;;;;;;;10.35;9.25;;;;;;;;;;5033166;28;20601;-62
2022/09/28 07:15:17;;;;;;;9.45;8.20;;;;;;;;;;5033021;28;20230;-62
2022/09/28 07:17:45;;;;;;;10.93;9.70;;;;;;;;;;5033732;28;20202;-59
2022/09/28 07:20:12;;;;;;;12.65;9.68;;;;;;;;;;5033750;28;20199;-60
2022/09/28 07:22:39;;;;;;;12.98;10.10;;;;;;;;;;5033712;28;20198;-61
2022/09/28 07:25:07;;;;;;;14.02;11.20;;;;;;;;;;5033581;28;20261;-62
2022/09/28 07:27:35;;;;;;;18.27;11.60;;;;;;;;;;5033503;28;20206;-62
2022/09/28 07:30:02;;;;;;;13.00;10.75;;;;;;;;;;5033395;28;20300;-61
2022/09/28 07:32:31;;;;;;;14.55;10.82;;;;;;;;;;5033598;28;20198;-62
2022/09/28 07:35:03;;;;;;;17.35;12.48;;;;;;;;;;5033369;28;20679;-63
2022/09/28 07:37:30;;;;;;;12.23;9.10;;;;;;;;;;5033519;28;20285;-62
2022/09/28 07:42:54;;;;;;;8.98;7.18;;;;;;;;;;5010509;28;20294;-62
2022/09/28 07:45:23;;;;;;;8.63;7.72;;;;;;;;;;5027537;28;20229;-63
2022/09/28 07:47:50;;;;;;;9.27;6.78;;;;;;;;;;5033072;28;20221;-62
2022/09/28 07:50:20;;;;;;;6.35;5.28;;;;;;;;;;5033052;28;20316;-62
2022/09/28 07:52:47;;;;;;;7.70;5.90;;;;;;;;;;5032816;28;20205;-62
2022/09/28 07:55:14;;;;;;;5.68;5.05;;;;;;;;;;5032729;28;20222;-61
2022/09/28 07:57:42;;;;;;;5.47;4.25;;;;;;;;;;5032753;28;20260;-62
2022/09/28 08:00:09;;;;;;;5.63;4.38;;;;;;;;;;5032618;28;20686;-62
2022/09/28 08:02:38;;;;;;;6.60;4.25;;;;;;;;;;5032043;28;20202;-62
2022/09/28 08:05:05;;;;;;;6.75;5.47;;;;;;;;;;5032381;28;20237;-62
2022/09/28 08:07:37;;;;;;;4.95;4.40;;;;;;;;;;5032935;28;20693;-62
2022/09/28 08:10:04;;;;;;;5.25;4.40;;;;;;;;;;5032423;28;20203;-62
2022/09/28 08:12:32;;;;;;;6.80;5.20;;;;;;;;;;5032584;28;20209;-62
2022/09/28 08:14:59;;;;;;;7.53;4.38;;;;;;;;;;5032677;28;20225;-62
2022/09/28 08:17:26;;;;;;;5.60;4.30;;;;;;;;;;5032073;28;20252;-62
2022/09/28 08:22:40;;;;;;;7.43;4.60;;;;;;;;;;5032566;28;20278;-63
2022/09/28 08:25:07;;;;;;;4.82;4.32;;;;;;;;;;5032752;28;20741;-63
2022/09/28 08:27:34;;;;;;;5.82;4.38;;;;;;;;;;5013820;28;20206;-63
2022/09/28 08:30:01;;;;;;;5.07;4.57;;;;;;;;;;5013198;28;20226;-63
2022/09/28 08:32:29;;;;;;;5.38;4.85;;;;;;;;;;5013397;28;20221;-63
2022/09/28 08:34:57;;;;;;;5.30;4.55;;;;;;;;;;5012929;28;20592;-63
2022/09/28 08:37:24;;;;;;;5.82;4.88;;;;;;;;;;5013607;28;20207;-63
2022/09/28 08:39:52;;;;;;;8.15;4.97;;;;;;;;;;5032463;28;20277;-63
2022/09/28 08:42:30;;;;;;;5.30;4.45;;;;;;;;;;5032400;28;20198;-61
2022/09/28 08:44:59;;;;;;;7.97;5.80;;;;;;;;;;5031666;28;20272;-63
2022/09/28 08:50:15;;;;;;;5.07;4.57;;;;;;;;;;5030883;28;20583;-62
2022/09/28 08:52:46;;;;;;;4.40;4.00;;;;;;;;;;5032543;28;20206;-63
2022/09/28 08:55:17;;;;;;;6.10;3.95;;;;;;;;;;5033076;28;20214;-63
2022/09/28 08:57:45;;;;;;;3.63;3.33;;;;;;;;;;5035699;28;20296;-63
2022/09/28 09:00:16;;;;;;;4.15;3.75;;;;;;;;;;5035897;28;20190;-64
2022/09/28 09:02:45;;;;;;;3.60;2.90;;;;;;;;;;5035773;28;20190;-63
2022/09/28 09:05:13;;;;;;;5.55;3.90;;;;;;;;;;5036288;28;20237;-64
2022/09/28 09:07:50;;;;;;;3.28;2.97;;;;;;;;;;5035877;28;20202;-62
2022/09/28 09:10:35;;;;;;;3.03;2.60;;;;;;;;;;5036066;28;20237;-62
2022/09/28 09:13:06;;;;;;;1.52;1.42;;;;;;;;;;5035777;28;20186;-62
2022/09/28 09:15:37;;;;;;;2.40;2.00;;;;;;;;;;5035838;28;20234;-62
2022/09/28 09:18:12;;;;;;;2.63;2.42;;;;;;;;;;5035934;28;20566;-62
2022/09/28 09:20:44;;;;;;;2.58;2.00;;;;;;;;;;5015800;28;20548;-64
2022/09/28 09:23:15;;;;;;;3.58;3.28;;;;;;;;;;5016021;28;20638;-65
2022/09/28 09:25:45;;;;;;;2.45;2.10;;;;;;;;;;5015958;28;20222;-65
2022/09/28 09:28:30;;;;;;;2.88;2.65;;;;;;;;;;5016518;28;20191;-63
2022/09/28 09:31:04;;;;;;;3.28;2.97;;;;;;;;;;5015470;28;20659;-63
2022/09/28 09:33:41;;;;;;;4.32;3.03;;;;;;;;;;5016025;28;20183;-65
2022/09/28 09:36:12;;;;;;;3.60;2.83;;;;;;;;;;5015322;28;20219;-62
2022/09/28 09:38:46;;;;;;;3.60;3.30;;;;;;;;;;5015369;28;20191;-64
2022/09/28 09:41:19;;;;;;;2.90;2.63;;;;;;;;;;5015575;28;20673;-64
2022/09/28 09:44:05;;;;;;;4.22;3.83;;;;;;;;;;5016044;28;20191;-63
2022/09/28 09:46:35;;;;;;;4.07;3.38;;;;;;;;;;5015381;28;20646;-64
2022/09/28 09:49:06;;;;;;;4.40;4.00;;;;;;;;;;5015864;28;20203;-63
2022/09/28 09:51:38;;;;;;;3.80;3.50;;;;;;;;;;5015238;28;20220;-63
2022/09/28 09:54:07;;;;;;;4.30;3.83;;;;;;;;;;5015703;28;20210;-63
2022/09/28 09:56:37;;;;;;;4.40;4.00;;;;;;;;;;5016110;28;20203;-62
2022/09/28 09:59:08;;;;;;;3.75;3.40;;;;;;;;;;5015647;28;20199;-63
2022/09/28 10:01:37;;;;;;;4.95;2.70;;;;;;;;;;5016092;28;20183;-63
2022/09/28 10:04:05;;;;;;;2.80;2.60;;;;;;;;;;5016066;28;20202;-63
2022/09/28 10:06:34;;;;;;;3.85;3.00;;;;;;;;;;5015563;28;20221;-63
2022/09/28 10:09:04;;;;;;;3.63;3.10;;;;;;;;;;5016387;28;20199;-64
2022/09/28 10:11:34;;;;;;;3.67;3.35;;;;;;;;;;5016774;28;20226;-63
2022/09/28 10:14:02;;;;;;;3.40;3.10;;;;;;;;;;5016003;28;20191;-63
2022/09/28 10:16:31;;;;;;;5.00;4.60;;;;;;;;;;5016367;28;20250;-63
2022/09/28 10:18:59;;;;;;;4.00;3.60;;;;;;;;;;5016368;28;20241;-64
2022/09/28 10:21:26;;;;;;;4.43;4.03;;;;;;;;;;5016728;28;20199;-62
2022/09/28 10:23:56;;;;;;;5.53;4.97;;;;;;;;;;5016656;28;20297;-64
2022/09/28 10:26:25;;;;;;;4.85;4.35;;;;;;;;;;5016293;28;20231;-64
2022/09/28 10:28:54;;;;;;;5.05;4.50;;;;;;;;;;5016819;28;20560;-63
2022/09/28 10:31:36;;;;;;;7.32;5.53;;;;;;;;;;5016342;28;20234;-63
2022/09/28 10:34:04;;;;;;;5.03;4.55;;;;;;;;;;5015958;28;20671;-62
2022/09/28 10:36:37;;;;;;;8.75;6.05;;;;;;;;;;5015145;28;20219;-63
2022/09/28 10:39:04;;;;;;;5.40;4.38;;;;;;;;;;5018145;28;20193;-62
2022/09/28 10:41:32;;;;;;;5.93;5.10;;;;;;;;;;5034781;28;20663;-62
2022/09/28 10:44:11;;;;;;;4.68;4.25;;;;;;;;;;5035608;28;20209;-62
2022/09/28 10:46:40;;;;;;;7.25;5.57;;;;;;;;;;5036201;28;20194;-62
2022/09/28 10:49:08;;;;;;;8.63;4.43;;;;;;;;;;5035550;28;20666;-61
2022/09/28 10:51:43;;;;;;;7.38;4.38;;;;;;;;;;5034702;28;20633;-63
2022/09/28 10:54:15;;;;;;;5.07;4.47;;;;;;;;;;5034228;28;20209;-62
2022/09/28 10:56:42;;;;;;;4.55;4.15;;;;;;;;;;5034565;28;20187;-61
2022/09/28 10:59:23;;;;;;;4.78;4.28;;;;;;;;;;5034487;28;20206;-62
2022/09/28 11:01:54;;;;;;;6.63;4.40;;;;;;;;;;5035364;28;20191;-61
2022/09/28 11:04:23;;;;;;;4.63;4.22;;;;;;;;;;5034331;28;20665;-63
2022/09/28 11:06:50;;;;;;;4.30;3.90;;;;;;;;;;5033844;28;20191;-61
2022/09/28 11:09:26;;;;;;;5.60;4.75;;;;;;;;;;5033646;28;20206;-61
2022/09/28 11:11:54;;;;;;;4.88;4.35;;;;;;;;;;5033917;28;20643;-62
2022/09/28 11:14:25;;;;;;;4.05;3.65;;;;;;;;;;5033587;28;20681;-62
2022/09/28 11:17:07;;;;;;;5.75;4.60;;;;;;;;;;5033820;28;20221;-63
2022/09/28 11:19:37;;;;;;;6.60;5.03;;;;;;;;;;5032827;28;20268;-62
2022/09/28 11:22:20;;;;;;;6.60;5.15;;;;;;;;;;5035442;28;20206;-60
2022/09/28 11:24:47;;;;;;;5.82;4.25;;;;;;;;;;5033909;28;20218;-62
2022/09/28 11:27:20;;;;;;;4.65;4.25;;;;;;;;;;5034536;28;20213;-62
2022/09/28 11:29:54;;;;;;;5.80;5.30;;;;;;;;;;5033990;28;20194;-62
2022/09/28 11:32:22;;;;;;;5.25;4.75;;;;;;;;;;5033966;28;20213;-62
2022/09/28 11:34:52;;;;;;;4.93;4.15;;;;;;;;;;5033326;28;20241;-61
2022/09/28 11:37:33;;;;;;;5.50;5.00;;;;;;;;;;5033583;28;20674;-60
2022/09/28 11:40:05;;;;;;;6.00;4.68;;;;;;;;;;5033216;28;20269;-62
2022/09/28 11:42:38;;;;;;;5.18;4.68;;;;;;;;;;5033576;28;20193;-62
2022/09/28 11:45:13;;;;;;;4.10;3.70;;;;;;;;;;5033972;28;20276;-63
2022/09/28 11:47:47;;;;;;;6.50;4.45;;;;;;;;;;5033672;28;20273;-61
2022/09/28 11:50:18;;;;;;;4.45;4.05;;;;;;;;;;5033504;28;20240;-62
2022/09/28 11:52:49;;;;;;;4.65;3.47;;;;;;;;;;5034155;28;20190;-62
2022/09/28 11:55:19;;;;;;;4.90;4.40;;;;;;;;;;5033199;28;20219;-62
2022/09/28 11:57:49;;;;;;;4.65;4.15;;;;;;;;;;5033696;28;20187;-62
2022/09/28 12:00:20;;;;;;;5.15;4.35;;;;;;;;;;5042066;28;20222;-62
2022/09/28 12:02:48;;;;;;;4.95;4.45;;;;;;;;;;5042679;28;20187;-61
2022/09/28 12:05:21;;;;;;;4.55;4.15;;;;;;;;;;5040624;28;20234;-62
2022/09/28 12:07:50;;;;;;;5.00;4.50;;;;;;;;;;5041045;28;20190;-61
2022/09/28 12:10:20;;;;;;;5.07;4.57;;;;;;;;;;5041025;28;20202;-61
2022/09/28 12:12:50;;;;;;;4.38;3.53;;;;;;;;;;5041174;28;20657;-62
2022/09/28 12:15:19;;;;;;;3.80;3.35;;;;;;;;;;5033379;28;20218;-61
2022/09/28 12:17:48;;;;;;;3.33;3.03;;;;;;;;;;5032476;28;20198;-62
2022/09/28 12:20:21;;;;;;;3.88;3.47;;;;;;;;;;5032639;28;20202;-63
2022/09/28 12:22:51;;;;;;;4.20;3.10;;;;;;;;;;5033136;28;20225;-62
2022/09/28 12:25:21;;;;;;;3.30;2.93;;;;;;;;;;5033688;28;20480;-61
2022/09/28 12:27:50;;;;;;;3.08;2.88;;;;;;;;;;5033105;28;20449;-61
2022/09/28 12:30:19;;;;;;;2.70;2.50;;;;;;;;;;5033724;28;20206;-63
2022/09/28 12:32:47;;;;;;;2.27;2.07;;;;;;;;;;5036482;28;20473;-62
2022/09/28 12:35:15;;;;;;;2.40;2.20;;;;;;;;;;5024860;28;20466;-62
2022/09/28 12:37:55;;;;;;;2.87;2.17;;;;;;;;;;5017221;28;20523;-61
2022/09/28 12:40:32;;;;;;;2.03;1.83;;;;;;;;;;5020464;28;20433;-61
2022/09/28 12:43:07;;;;;;;2.63;2.10;;;;;;;;;;5036088;28;20198;-61
2022/09/28 12:45:40;;;;;;;2.28;2.10;;;;;;;;;;5035986;28;20533;-62
2022/09/28 12:48:24;;;;;;;2.60;2.13;;;;;;;;;;5036374;28;20191;-61
2022/09/28 12:50:59;;;;;;;4.40;3.37;;;;;;;;;;5036273;28;21048;-61
2022/09/28 12:53:40;;;;;;;3.30;3.00;;;;;;;;;;5035262;28;20439;-61
2022/09/28 12:56:13;;;;;;;4.30;3.63;;;;;;;;;;5036407;28;20472;-61
2022/09/28 12:58:47;;;;;;;3.47;3.17;;;;;;;;;;5036433;28;20536;-61
2022/09/28 13:01:31;;;;;;;2.50;2.30;;;;;;;;;;5035690;28;20448;-61
2022/09/28 13:04:07;;;;;;;2.73;2.53;;;;;;;;;;5036112;28;20932;-61
2022/09/28 13:06:38;;;;;;;3.93;3.53;;;;;;;;;;5102200;22;20578;-59
2022/09/28 13:09:15;;;;;;;4.37;2.83;;;;;;;;;;5077062;28;20499;-60
2022/09/28 13:11:45;;;;;;;3.00;2.80;;;;;;;;;;5077491;28;20471;-56
2022/09/28 13:14:32;;;;;;;2.87;2.60;;;;;;;;;;5077690;28;20438;-58
2022/09/28 13:17:04;;;;;;;3.87;3.50;;;;;;;;;;5078022;28;20477;-59
2022/09/28 13:19:36;;;;;;;4.70;3.20;;;;;;;;;;5077947;28;20439;-59
2022/09/28 13:22:08;;;;;;;4.30;3.30;;;;;;;;;;5066417;28;21841;-60
2022/09/28 13:24:40;;;;;;;3.03;2.73;;;;;;;;;;5076877;28;20440;-59
2022/09/28 13:27:10;;;;;;;3.03;2.80;;;;;;;;;;5077774;28;20470;-60
2022/09/28 13:29:38;;;;;;;4.80;2.80;;;;;;;;;;5076876;28;20910;-60
2022/09/28 13:32:05;;;;;;;3.13;2.40;;;;;;;;;;5076296;28;20994;-60
2022/09/28 13:34:34;;;;;;;3.40;2.90;;;;;;;;;;5076697;28;20447;-60
2022/09/28 13:37:20;;;;;;;3.23;2.70;;;;;;;;;;5075659;28;20847;-60
2022/09/28 13:39:51;;;;;;;3.80;2.50;;;;;;;;;;5077418;28;20436;-59
2022/09/28 13:42:23;;;;;;;2.60;2.40;;;;;;;;;;5077928;28;20446;-60
2022/09/28 13:45:09;;;;;;;3.30;3.00;;;;;;;;;;5084773;28;20820;-59
2022/09/28 13:47:43;;;;;;;3.90;3.10;;;;;;;;;;5081852;28;20922;-58
2022/09/28 13:50:18;;;;;;;3.13;2.83;;;;;;;;;;5078092;28;20434;-59
2022/09/28 13:52:48;;;;;;;2.63;2.43;;;;;;;;;;5081053;28;20477;-61
2022/09/28 13:55:21;;;;;;;3.60;3.10;;;;;;;;;;5085529;28;20463;-60
2022/09/28 13:57:50;;;;;;;4.67;3.60;;;;;;;;;;5085193;28;20554;-61
2022/09/28 14:00:20;;;;;;;3.97;2.80;;;;;;;;;;5084588;28;20447;-60
2022/09/28 14:02:49;;;;;;;5.95;3.53;;;;;;;;;;5082987;28;20223;-58
2022/09/28 14:05:35;;;;;;;3.37;2.60;;;;;;;;;;5079547;28;20229;-60
2022/09/28 14:08:19;;;;;;;3.30;2.97;;;;;;;;;;5068224;28;20507;-61
2022/09/28 14:10:50;;;;;;;4.00;3.03;;;;;;;;;;5080275;28;20201;-60
2022/09/28 14:13:32;;;;;;;2.80;2.60;;;;;;;;;;5083898;28;20459;-59
2022/09/28 14:16:14;;;;;;;3.00;2.70;;;;;;;;;;5081898;28;20928;-60
2022/09/28 14:18:41;;;;;;;3.63;3.27;;;;;;;;;;5082974;28;20436;-60
2022/09/28 14:21:33;;;;;;;3.40;3.10;;;;;;;;;;5085845;28;20515;-58
2022/09/28 14:24:08;;;;;;;4.27;3.07;;;;;;;;;;5070218;28;20205;-59
2022/09/28 14:26:59;;;;;;;3.50;2.40;;;;;;;;;;5083401;28;20461;-60
2022/09/28 14:29:29;;;;;;;5.10;3.47;;;;;;;;;;5083322;28;20436;-60
2022/09/28 14:31:57;;;;;;;3.13;2.80;;;;;;;;;;5075917;28;21011;-58